sensor_id;sensor_type;location;lat;lon;timestamp;P1;durP1;ratioP1;P2;durP2;ratioP2
83020;SDS011;72837;47.418;19.394;2023-09-18T00:00:44;13.75;;;7.35;;
83020;SDS011;72837;47.418;19.394;2023-09-18T00:03:18;12.65;;;7.57;;
83020;SDS011;72837;47.418;19.394;2023-09-18T00:05:47;12.63;;;7.00;;
83020;SDS011;72837;47.418;19.394;2023-09-18T00:08:15;13.85;;;7.60;;
83020;SDS011;72837;47.418;19.394;2023-09-18T00:10:53;13.02;;;8.43;;
83020;SDS011;72837;47.418;19.394;2023-09-18T00:13:22;11.68;;;6.90;;
83020;SDS011;72837;47.418;19.394;2023-09-18T00:15:53;14.38;;;7.25;;
83020;SDS011;72837;47.418;19.394;2023-09-18T00:18:21;12.43;;;7.50;;
83020;SDS011;72837;47.418;19.394;2023-09-18T00:20:50;11.93;;;6.82;;
83020;SDS011;72837;47.418;19.394;2023-09-18T00:23:18;12.65;;;7.80;;
83020;SDS011;72837;47.418;19.394;2023-09-18T00:25:46;14.43;;;7.47;;
83020;SDS011;72837;47.418;19.394;2023-09-18T00:28:13;13.25;;;8.32;;
83020;SDS011;72837;47.418;19.394;2023-09-18T00:30:47;15.70;;;7.15;;
83020;SDS011;72837;47.418;19.394;2023-09-18T00:33:16;13.38;;;7.95;;
83020;SDS011;72837;47.418;19.394;2023-09-18T00:35:47;13.15;;;7.10;;
83020;SDS011;72837;47.418;19.394;2023-09-18T00:38:15;13.32;;;7.40;;
83020;SDS011;72837;47.418;19.394;2023-09-18T00:40:43;16.35;;;8.10;;
83020;SDS011;72837;47.418;19.394;2023-09-18T00:43:10;15.18;;;7.70;;
83020;SDS011;72837;47.418;19.394;2023-09-18T00:45:39;13.00;;;7.38;;
83020;SDS011;72837;47.418;19.394;2023-09-18T00:48:08;15.05;;;8.13;;
83020;SDS011;72837;47.418;19.394;2023-09-18T00:50:36;13.77;;;7.65;;
83020;SDS011;72837;47.418;19.394;2023-09-18T00:53:04;15.90;;;8.25;;
83020;SDS011;72837;47.418;19.394;2023-09-18T00:55:35;12.50;;;8.18;;
83020;SDS011;72837;47.418;19.394;2023-09-18T00:58:05;14.88;;;8.45;;
83020;SDS011;72837;47.418;19.394;2023-09-18T01:00:33;15.75;;;8.32;;
83020;SDS011;72837;47.418;19.394;2023-09-18T01:03:01;16.65;;;8.35;;
83020;SDS011;72837;47.418;19.394;2023-09-18T01:05:31;14.73;;;8.68;;
83020;SDS011;72837;47.418;19.394;2023-09-18T01:08:00;13.73;;;8.18;;
83020;SDS011;72837;47.418;19.394;2023-09-18T01:10:43;14.43;;;8.35;;
83020;SDS011;72837;47.418;19.394;2023-09-18T01:13:35;15.90;;;9.00;;
83020;SDS011;72837;47.418;19.394;2023-09-18T01:16:17;16.52;;;8.50;;
83020;SDS011;72837;47.418;19.394;2023-09-18T01:18:50;13.35;;;7.05;;
83020;SDS011;72837;47.418;19.394;2023-09-18T01:21:20;17.17;;;8.07;;
83020;SDS011;72837;47.418;19.394;2023-09-18T01:23:48;13.48;;;7.95;;
83020;SDS011;72837;47.418;19.394;2023-09-18T01:26:16;17.35;;;8.15;;
83020;SDS011;72837;47.418;19.394;2023-09-18T01:28:43;13.98;;;8.27;;
83020;SDS011;72837;47.418;19.394;2023-09-18T01:31:10;14.70;;;8.40;;
83020;SDS011;72837;47.418;19.394;2023-09-18T01:33:38;14.43;;;8.95;;
83020;SDS011;72837;47.418;19.394;2023-09-18T01:38:35;14.52;;;8.68;;
83020;SDS011;72837;47.418;19.394;2023-09-18T01:41:03;14.35;;;9.02;;
83020;SDS011;72837;47.418;19.394;2023-09-18T01:43:31;16.10;;;8.85;;
83020;SDS011;72837;47.418;19.394;2023-09-18T01:45:58;13.75;;;8.77;;
83020;SDS011;72837;47.418;19.394;2023-09-18T01:48:26;14.77;;;8.82;;
83020;SDS011;72837;47.418;19.394;2023-09-18T01:50:53;16.85;;;9.20;;
83020;SDS011;72837;47.418;19.394;2023-09-18T01:53:21;14.93;;;8.68;;
83020;SDS011;72837;47.418;19.394;2023-09-18T01:55:48;16.77;;;9.32;;
83020;SDS011;72837;47.418;19.394;2023-09-18T01:58:15;15.95;;;9.15;;
83020;SDS011;72837;47.418;19.394;2023-09-18T02:00:43;17.40;;;9.82;;
83020;SDS011;72837;47.418;19.394;2023-09-18T02:03:11;14.27;;;9.45;;
83020;SDS011;72837;47.418;19.394;2023-09-18T02:05:58;15.02;;;8.73;;
83020;SDS011;72837;47.418;19.394;2023-09-18T02:08:25;16.23;;;9.40;;
83020;SDS011;72837;47.418;19.394;2023-09-18T02:10:54;17.70;;;9.70;;
83020;SDS011;72837;47.418;19.394;2023-09-18T02:13:21;13.93;;;8.55;;
83020;SDS011;72837;47.418;19.394;2023-09-18T02:15:49;15.52;;;9.43;;
83020;SDS011;72837;47.418;19.394;2023-09-18T02:18:16;14.55;;;9.00;;
83020;SDS011;72837;47.418;19.394;2023-09-18T02:20:44;17.83;;;9.50;;
83020;SDS011;72837;47.418;19.394;2023-09-18T02:23:15;19.25;;;10.35;;
83020;SDS011;72837;47.418;19.394;2023-09-18T02:25:43;18.30;;;10.00;;
83020;SDS011;72837;47.418;19.394;2023-09-18T02:28:10;18.40;;;10.10;;
83020;SDS011;72837;47.418;19.394;2023-09-18T02:30:37;22.02;;;10.65;;
83020;SDS011;72837;47.418;19.394;2023-09-18T02:33:04;16.75;;;10.45;;
83020;SDS011;72837;47.418;19.394;2023-09-18T02:35:34;16.58;;;10.00;;
83020;SDS011;72837;47.418;19.394;2023-09-18T02:38:01;19.98;;;11.15;;
83020;SDS011;72837;47.418;19.394;2023-09-18T02:42:57;20.35;;;11.90;;
83020;SDS011;72837;47.418;19.394;2023-09-18T02:45:24;19.02;;;11.07;;
83020;SDS011;72837;47.418;19.394;2023-09-18T02:47:52;20.20;;;12.05;;
83020;SDS011;72837;47.418;19.394;2023-09-18T02:50:20;21.98;;;10.75;;
83020;SDS011;72837;47.418;19.394;2023-09-18T02:52:47;18.30;;;11.30;;
83020;SDS011;72837;47.418;19.394;2023-09-18T02:55:15;18.25;;;11.05;;
83020;SDS011;72837;47.418;19.394;2023-09-18T02:57:44;24.17;;;11.35;;
83020;SDS011;72837;47.418;19.394;2023-09-18T03:00:11;22.25;;;10.80;;
83020;SDS011;72837;47.418;19.394;2023-09-18T03:02:39;19.95;;;11.90;;
83020;SDS011;72837;47.418;19.394;2023-09-18T03:05:07;20.75;;;11.57;;
83020;SDS011;72837;47.418;19.394;2023-09-18T03:07:36;22.77;;;11.23;;
83020;SDS011;72837;47.418;19.394;2023-09-18T03:10:04;24.67;;;11.52;;
83020;SDS011;72837;47.418;19.394;2023-09-18T03:12:33;17.75;;;10.48;;
83020;SDS011;72837;47.418;19.394;2023-09-18T03:15:00;19.75;;;11.35;;
83020;SDS011;72837;47.418;19.394;2023-09-18T03:17:27;19.52;;;13.00;;
83020;SDS011;72837;47.418;19.394;2023-09-18T03:19:54;20.55;;;13.43;;
83020;SDS011;72837;47.418;19.394;2023-09-18T03:22:22;19.63;;;11.57;;
83020;SDS011;72837;47.418;19.394;2023-09-18T03:24:50;20.23;;;11.02;;
83020;SDS011;72837;47.418;19.394;2023-09-18T03:27:17;22.98;;;11.57;;
83020;SDS011;72837;47.418;19.394;2023-09-18T03:29:44;18.13;;;11.10;;
83020;SDS011;72837;47.418;19.394;2023-09-18T03:32:13;20.33;;;12.20;;
83020;SDS011;72837;47.418;19.394;2023-09-18T03:34:40;20.13;;;13.60;;
83020;SDS011;72837;47.418;19.394;2023-09-18T03:37:09;19.55;;;11.88;;
83020;SDS011;72837;47.418;19.394;2023-09-18T03:39:36;24.08;;;13.85;;
83020;SDS011;72837;47.418;19.394;2023-09-18T03:42:03;23.25;;;13.38;;
83020;SDS011;72837;47.418;19.394;2023-09-18T03:44:31;22.00;;;12.32;;
83020;SDS011;72837;47.418;19.394;2023-09-18T03:46:59;23.25;;;12.32;;
83020;SDS011;72837;47.418;19.394;2023-09-18T03:49:27;24.83;;;13.40;;
83020;SDS011;72837;47.418;19.394;2023-09-18T03:51:55;21.63;;;12.27;;
83020;SDS011;72837;47.418;19.394;2023-09-18T03:54:23;19.55;;;11.80;;
83020;SDS011;72837;47.418;19.394;2023-09-18T03:56:50;24.25;;;12.63;;
83020;SDS011;72837;47.418;19.394;2023-09-18T03:59:17;24.50;;;13.27;;
83020;SDS011;72837;47.418;19.394;2023-09-18T04:01:44;24.90;;;13.48;;
83020;SDS011;72837;47.418;19.394;2023-09-18T04:04:12;26.13;;;13.32;;
83020;SDS011;72837;47.418;19.394;2023-09-18T04:06:40;21.30;;;12.30;;
83020;SDS011;72837;47.418;19.394;2023-09-18T04:09:13;21.33;;;13.13;;
83020;SDS011;72837;47.418;19.394;2023-09-18T04:11:41;22.50;;;12.93;;
83020;SDS011;72837;47.418;19.394;2023-09-18T04:14:09;21.67;;;12.55;;
83020;SDS011;72837;47.418;19.394;2023-09-18T04:16:36;24.65;;;12.93;;
83020;SDS011;72837;47.418;19.394;2023-09-18T04:19:04;21.33;;;13.00;;
83020;SDS011;72837;47.418;19.394;2023-09-18T04:21:31;18.83;;;10.65;;
83020;SDS011;72837;47.418;19.394;2023-09-18T04:23:58;21.55;;;12.75;;
83020;SDS011;72837;47.418;19.394;2023-09-18T04:26:27;20.40;;;12.55;;
83020;SDS011;72837;47.418;19.394;2023-09-18T04:28:58;20.98;;;14.02;;
83020;SDS011;72837;47.418;19.394;2023-09-18T04:31:26;21.63;;;12.63;;
83020;SDS011;72837;47.418;19.394;2023-09-18T04:33:55;21.30;;;11.60;;
83020;SDS011;72837;47.418;19.394;2023-09-18T04:36:23;20.35;;;11.50;;
83020;SDS011;72837;47.418;19.394;2023-09-18T04:38:51;19.17;;;11.73;;
83020;SDS011;72837;47.418;19.394;2023-09-18T04:41:19;20.10;;;11.40;;
83020;SDS011;72837;47.418;19.394;2023-09-18T04:43:46;20.55;;;11.63;;
83020;SDS011;72837;47.418;19.394;2023-09-18T04:46:14;21.55;;;11.70;;
83020;SDS011;72837;47.418;19.394;2023-09-18T04:48:44;22.08;;;12.30;;
83020;SDS011;72837;47.418;19.394;2023-09-18T04:51:12;20.60;;;11.15;;
83020;SDS011;72837;47.418;19.394;2023-09-18T04:53:39;20.40;;;11.63;;
83020;SDS011;72837;47.418;19.394;2023-09-18T04:56:08;20.02;;;11.52;;
83020;SDS011;72837;47.418;19.394;2023-09-18T04:58:37;22.20;;;11.57;;
83020;SDS011;72837;47.418;19.394;2023-09-18T05:01:05;20.63;;;11.20;;
83020;SDS011;72837;47.418;19.394;2023-09-18T05:03:37;18.98;;;10.63;;
83020;SDS011;72837;47.418;19.394;2023-09-18T05:06:09;21.42;;;11.90;;
83020;SDS011;72837;47.418;19.394;2023-09-18T05:08:36;19.08;;;11.23;;
83020;SDS011;72837;47.418;19.394;2023-09-18T05:11:04;18.55;;;11.25;;
83020;SDS011;72837;47.418;19.394;2023-09-18T05:13:32;19.65;;;11.25;;
83020;SDS011;72837;47.418;19.394;2023-09-18T05:15:59;18.73;;;11.35;;
83020;SDS011;72837;47.418;19.394;2023-09-18T05:20:55;21.52;;;10.68;;
83020;SDS011;72837;47.418;19.394;2023-09-18T05:23:22;20.65;;;11.15;;
83020;SDS011;72837;47.418;19.394;2023-09-18T05:25:50;19.30;;;10.52;;
83020;SDS011;72837;47.418;19.394;2023-09-18T05:28:17;19.30;;;12.25;;
83020;SDS011;72837;47.418;19.394;2023-09-18T05:30:45;19.40;;;10.63;;
83020;SDS011;72837;47.418;19.394;2023-09-18T05:33:12;19.13;;;11.27;;
83020;SDS011;72837;47.418;19.394;2023-09-18T05:35:41;22.15;;;11.60;;
83020;SDS011;72837;47.418;19.394;2023-09-18T05:38:10;17.90;;;10.70;;
83020;SDS011;72837;47.418;19.394;2023-09-18T05:40:40;19.75;;;11.65;;
83020;SDS011;72837;47.418;19.394;2023-09-18T05:43:08;21.25;;;11.35;;
83020;SDS011;72837;47.418;19.394;2023-09-18T05:45:36;17.90;;;10.60;;
83020;SDS011;72837;47.418;19.394;2023-09-18T05:48:04;19.70;;;11.07;;
83020;SDS011;72837;47.418;19.394;2023-09-18T05:50:33;16.45;;;9.68;;
83020;SDS011;72837;47.418;19.394;2023-09-18T05:53:05;18.10;;;10.57;;
83020;SDS011;72837;47.418;19.394;2023-09-18T05:55:33;18.95;;;10.90;;
83020;SDS011;72837;47.418;19.394;2023-09-18T05:58:01;17.75;;;10.38;;
83020;SDS011;72837;47.418;19.394;2023-09-18T06:00:31;16.73;;;10.95;;
83020;SDS011;72837;47.418;19.394;2023-09-18T06:03:00;18.20;;;9.55;;
83020;SDS011;72837;47.418;19.394;2023-09-18T06:05:28;18.10;;;10.35;;
83020;SDS011;72837;47.418;19.394;2023-09-18T06:07:58;16.20;;;9.60;;
83020;SDS011;72837;47.418;19.394;2023-09-18T06:10:26;15.68;;;8.38;;
83020;SDS011;72837;47.418;19.394;2023-09-18T06:12:53;17.00;;;9.45;;
83020;SDS011;72837;47.418;19.394;2023-09-18T06:15:21;15.30;;;9.90;;
83020;SDS011;72837;47.418;19.394;2023-09-18T06:17:48;17.08;;;9.93;;
83020;SDS011;72837;47.418;19.394;2023-09-18T06:20:15;16.58;;;9.02;;
83020;SDS011;72837;47.418;19.394;2023-09-18T06:22:43;15.48;;;8.07;;
83020;SDS011;72837;47.418;19.394;2023-09-18T06:25:11;14.25;;;8.30;;
83020;SDS011;72837;47.418;19.394;2023-09-18T06:27:39;18.30;;;8.63;;
83020;SDS011;72837;47.418;19.394;2023-09-18T06:30:09;13.38;;;7.57;;
83020;SDS011;72837;47.418;19.394;2023-09-18T06:32:36;14.50;;;8.18;;
83020;SDS011;72837;47.418;19.394;2023-09-18T06:35:04;13.75;;;8.02;;
83020;SDS011;72837;47.418;19.394;2023-09-18T06:37:33;14.80;;;8.18;;
83020;SDS011;72837;47.418;19.394;2023-09-18T06:40:00;15.18;;;8.32;;
83020;SDS011;72837;47.418;19.394;2023-09-18T06:42:31;14.90;;;8.10;;
83020;SDS011;72837;47.418;19.394;2023-09-18T06:45:00;15.20;;;7.82;;
83020;SDS011;72837;47.418;19.394;2023-09-18T06:47:28;13.15;;;8.32;;
83020;SDS011;72837;47.418;19.394;2023-09-18T06:49:56;16.83;;;8.10;;
83020;SDS011;72837;47.418;19.394;2023-09-18T06:52:23;15.30;;;8.45;;
83020;SDS011;72837;47.418;19.394;2023-09-18T06:54:52;16.75;;;8.25;;
83020;SDS011;72837;47.418;19.394;2023-09-18T06:57:19;15.50;;;8.13;;
83020;SDS011;72837;47.418;19.394;2023-09-18T06:59:49;12.90;;;7.60;;
83020;SDS011;72837;47.418;19.394;2023-09-18T07:02:17;13.57;;;7.80;;
83020;SDS011;72837;47.418;19.394;2023-09-18T07:04:45;13.85;;;8.23;;
83020;SDS011;72837;47.418;19.394;2023-09-18T07:09:43;15.18;;;7.13;;
83020;SDS011;72837;47.418;19.394;2023-09-18T07:12:13;15.27;;;8.13;;
83020;SDS011;72837;47.418;19.394;2023-09-18T07:14:40;16.20;;;7.70;;
83020;SDS011;72837;47.418;19.394;2023-09-18T07:17:08;14.55;;;7.50;;
83020;SDS011;72837;47.418;19.394;2023-09-18T07:19:35;14.65;;;7.95;;
83020;SDS011;72837;47.418;19.394;2023-09-18T07:22:02;13.68;;;8.13;;
83020;SDS011;72837;47.418;19.394;2023-09-18T07:24:30;17.73;;;8.68;;
83020;SDS011;72837;47.418;19.394;2023-09-18T07:29:25;16.23;;;8.30;;
83020;SDS011;72837;47.418;19.394;2023-09-18T07:31:53;13.38;;;8.18;;
83020;SDS011;72837;47.418;19.394;2023-09-18T07:34:20;13.20;;;7.72;;
83020;SDS011;72837;47.418;19.394;2023-09-18T07:36:47;16.42;;;8.23;;
83020;SDS011;72837;47.418;19.394;2023-09-18T07:39:20;15.07;;;8.20;;
83020;SDS011;72837;47.418;19.394;2023-09-18T07:41:48;14.18;;;8.07;;
83020;SDS011;72837;47.418;19.394;2023-09-18T07:44:19;18.80;;;8.85;;
83020;SDS011;72837;47.418;19.394;2023-09-18T07:46:47;13.98;;;8.15;;
83020;SDS011;72837;47.418;19.394;2023-09-18T07:49:14;15.30;;;8.73;;
83020;SDS011;72837;47.418;19.394;2023-09-18T07:51:43;13.43;;;8.13;;
83020;SDS011;72837;47.418;19.394;2023-09-18T07:54:13;14.88;;;7.57;;
83020;SDS011;72837;47.418;19.394;2023-09-18T07:56:41;15.07;;;7.28;;
83020;SDS011;72837;47.418;19.394;2023-09-18T07:59:10;17.33;;;7.72;;
83020;SDS011;72837;47.418;19.394;2023-09-18T08:01:37;13.85;;;8.38;;
83020;SDS011;72837;47.418;19.394;2023-09-18T08:04:04;15.10;;;8.13;;
83020;SDS011;72837;47.418;19.394;2023-09-18T08:09:00;13.40;;;7.88;;
83020;SDS011;72837;47.418;19.394;2023-09-18T08:11:27;11.95;;;7.43;;
83020;SDS011;72837;47.418;19.394;2023-09-18T08:13:55;13.38;;;7.25;;
83020;SDS011;72837;47.418;19.394;2023-09-18T08:16:22;13.05;;;7.00;;
83020;SDS011;72837;47.418;19.394;2023-09-18T08:18:50;13.15;;;7.00;;
83020;SDS011;72837;47.418;19.394;2023-09-18T08:23:44;14.27;;;7.25;;
83020;SDS011;72837;47.418;19.394;2023-09-18T08:26:12;14.63;;;7.90;;
83020;SDS011;72837;47.418;19.394;2023-09-18T08:28:41;16.85;;;8.07;;
83020;SDS011;72837;47.418;19.394;2023-09-18T08:31:10;13.02;;;7.85;;
83020;SDS011;72837;47.418;19.394;2023-09-18T08:33:38;12.98;;;7.20;;
83020;SDS011;72837;47.418;19.394;2023-09-18T08:36:05;15.38;;;7.53;;
83020;SDS011;72837;47.418;19.394;2023-09-18T08:38:32;14.73;;;7.53;;
83020;SDS011;72837;47.418;19.394;2023-09-18T08:40:59;11.60;;;7.47;;
83020;SDS011;72837;47.418;19.394;2023-09-18T08:43:27;15.90;;;7.75;;
83020;SDS011;72837;47.418;19.394;2023-09-18T08:45:56;15.57;;;7.78;;
83020;SDS011;72837;47.418;19.394;2023-09-18T08:48:28;14.98;;;7.70;;
83020;SDS011;72837;47.418;19.394;2023-09-18T08:51:05;13.00;;;7.35;;
83020;SDS011;72837;47.418;19.394;2023-09-18T08:53:34;13.23;;;7.45;;
83020;SDS011;72837;47.418;19.394;2023-09-18T08:56:03;11.65;;;6.78;;
83020;SDS011;72837;47.418;19.394;2023-09-18T08:58:32;12.45;;;7.15;;
83020;SDS011;72837;47.418;19.394;2023-09-18T09:01:05;13.18;;;7.07;;
83020;SDS011;72837;47.418;19.394;2023-09-18T09:03:37;12.85;;;7.38;;
83020;SDS011;72837;47.418;19.394;2023-09-18T09:06:05;11.45;;;6.93;;
83020;SDS011;72837;47.418;19.394;2023-09-18T09:08:34;11.70;;;6.97;;
83020;SDS011;72837;47.418;19.394;2023-09-18T09:11:02;14.48;;;7.32;;
83020;SDS011;72837;47.418;19.394;2023-09-18T09:13:30;11.98;;;6.60;;
83020;SDS011;72837;47.418;19.394;2023-09-18T09:16:06;12.15;;;7.43;;
83020;SDS011;72837;47.418;19.394;2023-09-18T09:18:47;13.13;;;7.55;;
83020;SDS011;72837;47.418;19.394;2023-09-18T09:21:16;13.70;;;6.88;;
83020;SDS011;72837;47.418;19.394;2023-09-18T09:23:45;12.95;;;7.00;;
83020;SDS011;72837;47.418;19.394;2023-09-18T09:26:16;14.73;;;6.85;;
83020;SDS011;72837;47.418;19.394;2023-09-18T09:28:45;11.45;;;7.15;;
83020;SDS011;72837;47.418;19.394;2023-09-18T09:31:22;13.00;;;7.13;;
83020;SDS011;72837;47.418;19.394;2023-09-18T09:33:52;12.00;;;6.97;;
83020;SDS011;72837;47.418;19.394;2023-09-18T09:36:28;14.85;;;8.13;;
83020;SDS011;72837;47.418;19.394;2023-09-18T09:38:55;11.00;;;6.50;;
83020;SDS011;72837;47.418;19.394;2023-09-18T09:41:26;11.77;;;6.70;;
83020;SDS011;72837;47.418;19.394;2023-09-18T09:43:57;12.45;;;6.55;;
83020;SDS011;72837;47.418;19.394;2023-09-18T09:49:05;11.48;;;6.60;;
83020;SDS011;72837;47.418;19.394;2023-09-18T09:51:33;10.57;;;6.50;;
83020;SDS011;72837;47.418;19.394;2023-09-18T09:56:45;13.57;;;7.07;;
83020;SDS011;72837;47.418;19.394;2023-09-18T09:59:18;11.98;;;6.90;;
83020;SDS011;72837;47.418;19.394;2023-09-18T10:01:46;12.10;;;6.78;;
83020;SDS011;72837;47.418;19.394;2023-09-18T10:04:17;12.18;;;6.95;;
83020;SDS011;72837;47.418;19.394;2023-09-18T10:07:05;10.68;;;6.30;;
83020;SDS011;72837;47.418;19.394;2023-09-18T10:09:34;11.10;;;6.82;;
83020;SDS011;72837;47.418;19.394;2023-09-18T10:12:03;14.20;;;6.70;;
83020;SDS011;72837;47.418;19.394;2023-09-18T10:14:38;12.30;;;6.97;;
83020;SDS011;72837;47.418;19.394;2023-09-18T10:17:21;12.38;;;6.95;;
83020;SDS011;72837;47.418;19.394;2023-09-18T10:25:07;11.85;;;6.93;;
83020;SDS011;72837;47.418;19.394;2023-09-18T10:27:47;10.77;;;6.75;;
83020;SDS011;72837;47.418;19.394;2023-09-18T10:30:42;12.75;;;6.93;;
83020;SDS011;72837;47.418;19.394;2023-09-18T10:33:11;10.20;;;6.80;;
83020;SDS011;72837;47.418;19.394;2023-09-18T10:38:06;10.48;;;6.45;;
83020;SDS011;72837;47.418;19.394;2023-09-18T10:43:02;10.25;;;6.35;;
83020;SDS011;72837;47.418;19.394;2023-09-18T10:45:36;10.95;;;6.65;;
83020;SDS011;72837;47.418;19.394;2023-09-18T10:48:03;11.65;;;6.72;;
83020;SDS011;72837;47.418;19.394;2023-09-18T10:50:35;10.88;;;6.05;;
83020;SDS011;72837;47.418;19.394;2023-09-18T10:53:03;11.13;;;6.47;;
83020;SDS011;72837;47.418;19.394;2023-09-18T10:55:31;10.93;;;6.85;;
83020;SDS011;72837;47.418;19.394;2023-09-18T10:58:00;12.30;;;6.80;;
83020;SDS011;72837;47.418;19.394;2023-09-18T11:00:31;11.95;;;6.93;;
83020;SDS011;72837;47.418;19.394;2023-09-18T11:03:10;13.70;;;6.90;;
83020;SDS011;72837;47.418;19.394;2023-09-18T11:05:40;11.07;;;6.65;;
83020;SDS011;72837;47.418;19.394;2023-09-18T11:11:08;10.75;;;6.47;;
83020;SDS011;72837;47.418;19.394;2023-09-18T11:13:47;11.77;;;7.20;;
83020;SDS011;72837;47.418;19.394;2023-09-18T11:21:27;11.52;;;7.05;;
83020;SDS011;72837;47.418;19.394;2023-09-18T11:23:59;10.68;;;7.47;;
83020;SDS011;72837;47.418;19.394;2023-09-18T11:29:05;13.35;;;6.82;;
83020;SDS011;72837;47.418;19.394;2023-09-18T11:31:44;13.15;;;7.93;;
83020;SDS011;72837;47.418;19.394;2023-09-18T11:36:58;13.73;;;6.95;;
83020;SDS011;72837;47.418;19.394;2023-09-18T11:39:39;12.98;;;7.28;;
83020;SDS011;72837;47.418;19.394;2023-09-18T11:42:18;12.45;;;6.82;;
83020;SDS011;72837;47.418;19.394;2023-09-18T11:44:46;14.15;;;6.75;;
83020;SDS011;72837;47.418;19.394;2023-09-18T11:47:14;11.98;;;7.05;;
83020;SDS011;72837;47.418;19.394;2023-09-18T11:49:50;12.13;;;7.00;;
83020;SDS011;72837;47.418;19.394;2023-09-18T11:52:26;11.77;;;6.75;;
83020;SDS011;72837;47.418;19.394;2023-09-18T11:54:58;11.13;;;7.38;;
83020;SDS011;72837;47.418;19.394;2023-09-18T11:57:27;12.43;;;7.28;;
83020;SDS011;72837;47.418;19.394;2023-09-18T11:59:56;11.30;;;7.00;;
83020;SDS011;72837;47.418;19.394;2023-09-18T12:02:30;11.35;;;6.65;;
83020;SDS011;72837;47.418;19.394;2023-09-18T12:05:13;12.40;;;7.53;;
83020;SDS011;72837;47.418;19.394;2023-09-18T12:07:46;12.07;;;7.05;;
83020;SDS011;72837;47.418;19.394;2023-09-18T12:10:14;10.50;;;6.90;;
83020;SDS011;72837;47.418;19.394;2023-09-18T12:12:47;11.98;;;7.72;;
83020;SDS011;72837;47.418;19.394;2023-09-18T12:15:17;15.20;;;7.93;;
83020;SDS011;72837;47.418;19.394;2023-09-18T12:17:47;15.63;;;7.82;;
83020;SDS011;72837;47.418;19.394;2023-09-18T12:20:14;13.15;;;8.05;;
83020;SDS011;72837;47.418;19.394;2023-09-18T12:22:48;13.60;;;8.32;;
83020;SDS011;72837;47.418;19.394;2023-09-18T12:25:18;12.60;;;7.38;;
83020;SDS011;72837;47.418;19.394;2023-09-18T12:27:45;12.13;;;7.72;;
83020;SDS011;72837;47.418;19.394;2023-09-18T12:30:13;12.27;;;7.75;;
83020;SDS011;72837;47.418;19.394;2023-09-18T12:32:48;12.57;;;7.45;;
83020;SDS011;72837;47.418;19.394;2023-09-18T12:35:16;11.57;;;7.68;;
83020;SDS011;72837;47.418;19.394;2023-09-18T12:37:45;12.25;;;7.63;;
83020;SDS011;72837;47.418;19.394;2023-09-18T12:42:56;13.52;;;8.73;;
83020;SDS011;72837;47.418;19.394;2023-09-18T12:45:25;11.57;;;7.38;;
83020;SDS011;72837;47.418;19.394;2023-09-18T12:47:56;12.90;;;7.57;;
83020;SDS011;72837;47.418;19.394;2023-09-18T12:50:25;15.60;;;8.13;;
83020;SDS011;72837;47.418;19.394;2023-09-18T12:55:23;11.90;;;7.70;;
83020;SDS011;72837;47.418;19.394;2023-09-18T12:57:53;14.95;;;7.00;;
83020;SDS011;72837;47.418;19.394;2023-09-18T13:00:21;12.20;;;7.40;;
83020;SDS011;72837;47.418;19.394;2023-09-18T13:02:50;10.98;;;7.32;;
83020;SDS011;72837;47.418;19.394;2023-09-18T13:05:23;12.45;;;8.48;;
83020;SDS011;72837;47.418;19.394;2023-09-18T13:07:54;14.70;;;7.10;;
83020;SDS011;72837;47.418;19.394;2023-09-18T13:10:22;12.80;;;7.45;;
83020;SDS011;72837;47.418;19.394;2023-09-18T13:12:54;12.45;;;7.68;;
83020;SDS011;72837;47.418;19.394;2023-09-18T13:15:26;11.82;;;7.35;;
83020;SDS011;72837;47.418;19.394;2023-09-18T13:18:01;11.05;;;6.72;;
83020;SDS011;72837;47.418;19.394;2023-09-18T13:20:38;12.23;;;7.57;;
83020;SDS011;72837;47.418;19.394;2023-09-18T13:23:07;12.43;;;7.00;;
83020;SDS011;72837;47.418;19.394;2023-09-18T13:25:35;16.05;;;7.80;;
83020;SDS011;72837;47.418;19.394;2023-09-18T13:28:09;13.85;;;7.18;;
83020;SDS011;72837;47.418;19.394;2023-09-18T13:30:38;13.45;;;8.20;;
83020;SDS011;72837;47.418;19.394;2023-09-18T13:35:43;10.10;;;7.65;;
83020;SDS011;72837;47.418;19.394;2023-09-18T13:38:12;10.93;;;7.38;;
83020;SDS011;72837;47.418;19.394;2023-09-18T13:40:41;13.68;;;6.75;;
83020;SDS011;72837;47.418;19.394;2023-09-18T13:43:09;11.77;;;7.70;;
83020;SDS011;72837;47.418;19.394;2023-09-18T13:45:38;12.23;;;8.00;;
83020;SDS011;72837;47.418;19.394;2023-09-18T13:48:06;12.18;;;7.40;;
83020;SDS011;72837;47.418;19.394;2023-09-18T13:50:34;13.90;;;8.15;;
83020;SDS011;72837;47.418;19.394;2023-09-18T13:53:03;13.23;;;7.63;;
83020;SDS011;72837;47.418;19.394;2023-09-18T13:55:33;12.65;;;7.20;;
83020;SDS011;72837;47.418;19.394;2023-09-18T13:58:02;11.15;;;7.60;;
83020;SDS011;72837;47.418;19.394;2023-09-18T14:00:30;12.45;;;7.00;;
83020;SDS011;72837;47.418;19.394;2023-09-18T14:02:58;9.63;;;6.75;;
83020;SDS011;72837;47.418;19.394;2023-09-18T14:05:25;12.70;;;7.43;;
83020;SDS011;72837;47.418;19.394;2023-09-18T14:07:55;12.68;;;6.97;;
83020;SDS011;72837;47.418;19.394;2023-09-18T14:10:27;14.07;;;7.57;;
83020;SDS011;72837;47.418;19.394;2023-09-18T14:12:55;15.10;;;7.40;;
83020;SDS011;72837;47.418;19.394;2023-09-18T14:15:24;12.15;;;7.00;;
83020;SDS011;72837;47.418;19.394;2023-09-18T14:17:51;10.73;;;7.47;;
83020;SDS011;72837;47.418;19.394;2023-09-18T14:20:18;12.10;;;7.40;;
83020;SDS011;72837;47.418;19.394;2023-09-18T14:22:46;14.50;;;7.93;;
83020;SDS011;72837;47.418;19.394;2023-09-18T14:25:17;11.32;;;7.32;;
83020;SDS011;72837;47.418;19.394;2023-09-18T14:27:47;13.90;;;7.75;;
83020;SDS011;72837;47.418;19.394;2023-09-18T14:32:42;13.43;;;7.65;;
83020;SDS011;72837;47.418;19.394;2023-09-18T14:35:10;12.20;;;7.85;;
83020;SDS011;72837;47.418;19.394;2023-09-18T14:37:38;16.60;;;8.65;;
83020;SDS011;72837;47.418;19.394;2023-09-18T14:40:05;11.38;;;7.88;;
83020;SDS011;72837;47.418;19.394;2023-09-18T14:45:06;20.00;;;8.50;;
83020;SDS011;72837;47.418;19.394;2023-09-18T14:50:01;15.45;;;8.23;;
83020;SDS011;72837;47.418;19.394;2023-09-18T14:52:29;20.65;;;8.85;;
83020;SDS011;72837;47.418;19.394;2023-09-18T14:54:56;11.75;;;7.45;;
83020;SDS011;72837;47.418;19.394;2023-09-18T14:57:24;12.68;;;7.60;;
83020;SDS011;72837;47.418;19.394;2023-09-18T14:59:53;12.93;;;8.15;;
83020;SDS011;72837;47.418;19.394;2023-09-18T15:02:21;14.68;;;7.38;;
83020;SDS011;72837;47.418;19.394;2023-09-18T15:04:48;15.95;;;8.02;;
83020;SDS011;72837;47.418;19.394;2023-09-18T15:07:15;13.20;;;7.57;;
83020;SDS011;72837;47.418;19.394;2023-09-18T15:09:42;13.38;;;7.57;;
83020;SDS011;72837;47.418;19.394;2023-09-18T15:12:09;13.48;;;7.60;;
83020;SDS011;72837;47.418;19.394;2023-09-18T15:14:38;12.45;;;8.13;;
83020;SDS011;72837;47.418;19.394;2023-09-18T15:17:05;13.10;;;7.40;;
83020;SDS011;72837;47.418;19.394;2023-09-18T15:19:34;15.02;;;8.50;;
83020;SDS011;72837;47.418;19.394;2023-09-18T15:24:30;14.38;;;7.57;;
83020;SDS011;72837;47.418;19.394;2023-09-18T15:26:57;12.95;;;7.38;;
83020;SDS011;72837;47.418;19.394;2023-09-18T15:29:24;17.20;;;8.55;;
83020;SDS011;72837;47.418;19.394;2023-09-18T15:32:00;17.77;;;9.27;;
83020;SDS011;72837;47.418;19.394;2023-09-18T15:34:32;17.42;;;7.70;;